createdAt,value
2017-05-09T00:00:59.711Z,5.67
2017-05-09T00:02:12.145Z,5.71
2017-05-09T00:03:24.583Z,5.68
2017-05-09T00:04:38.304Z,5.67
2017-05-09T00:05:51.056Z,5.72
2017-05-09T00:07:04.823Z,5.68
2017-05-09T00:08:17.271Z,5.71
2017-05-09T00:09:31.238Z,5.69
2017-05-09T00:20:36.041Z,5.75
2017-05-09T00:21:49.776Z,5.71
2017-05-09T00:23:02.456Z,5.67
2017-05-09T00:24:14.920Z,5.71
2017-05-09T00:25:27.346Z,5.68
2017-05-09T00:26:38.509Z,5.67
2017-05-09T00:27:52.266Z,5.58
2017-05-09T00:29:06.253Z,5.56
2017-05-09T00:30:20.003Z,5.61
2017-05-09T00:31:33.765Z,5.56
2017-05-09T00:32:46.232Z,5.67
2017-05-09T00:33:58.956Z,5.67
2017-05-09T00:35:11.396Z,5.58
2017-05-09T00:36:23.847Z,5.54
2017-05-09T00:37:37.571Z,5.54
2017-05-09T00:38:51.286Z,5.53
2017-05-09T00:40:02.744Z,5.53
2017-05-09T00:41:15.180Z,5.54
2017-05-09T00:42:29.134Z,5.53
2017-05-09T00:43:42.860Z,5.49
2017-05-09T00:44:56.842Z,5.47
2017-05-09T00:46:09.498Z,5.46
2017-05-09T00:47:23.222Z,5.4
2017-05-09T00:48:36.949Z,5.36
2017-05-09T00:49:50.682Z,5.28
2017-05-09T00:51:04.732Z,5.33
2017-05-09T00:52:17.220Z,5.32
2017-05-09T00:53:30.948Z,5.35
2017-05-09T00:54:44.716Z,5.32
2017-05-09T00:55:57.409Z,5.31
2017-05-09T00:57:11.146Z,5.35
2017-05-09T00:58:25.104Z,5.5
2017-05-09T00:59:37.545Z,5.51
2017-05-09T01:00:51.276Z,5.61
2017-05-09T01:02:05.314Z,5.56
2017-05-09T01:03:19.034Z,5.47
2017-05-09T01:04:32.996Z,5.51
2017-05-09T01:05:46.722Z,5.41
2017-05-09T01:07:00.897Z,5.41
2017-05-09T01:08:14.641Z,5.4
2017-05-09T01:09:28.546Z,5.41
2017-05-09T01:10:40.984Z,5.4
2017-05-09T01:11:54.793Z,5.46
2017-05-09T01:13:08.828Z,5.41
2017-05-09T01:14:22.557Z,5.46
2017-05-09T01:15:36.275Z,5.29
2017-05-09T01:16:48.725Z,5.4
2017-05-09T01:18:02.903Z,5.31
2017-05-09T01:19:16.690Z,5.32
2017-05-09T01:20:30.432Z,5.28
2017-05-09T01:21:44.226Z,5.25
2017-05-09T01:22:57.963Z,5.25
2017-05-09T01:24:11.962Z,5.22
2017-05-09T01:25:25.940Z,5.28
2017-05-09T01:26:38.469Z,5.29
2017-05-09T01:27:50.937Z,5.14
2017-05-09T01:29:05.097Z,5.17
2017-05-09T01:30:18.918Z,5.24
2017-05-09T01:31:32.640Z,5.16
2017-05-09T01:32:46.617Z,5.22
2017-05-09T01:34:00.345Z,5.36
2017-05-09T01:35:13.040Z,5.28
2017-05-09T01:36:25.696Z,5.25
2017-05-09T01:37:38.146Z,5.35
2017-05-09T01:38:50.584Z,5.35
2017-05-09T01:40:04.608Z,5.33
2017-05-09T01:41:17.250Z,5.36
2017-05-09T01:42:30.977Z,5.29
2017-05-09T01:43:44.862Z,5.28
2017-05-09T01:44:58.890Z,5.26
2017-05-09T01:46:12.872Z,5.28
2017-05-09T01:47:25.346Z,5.24
2017-05-09T01:48:39.350Z,5.32
2017-05-09T01:49:52.073Z,5.28
2017-05-09T01:51:04.776Z,5.32
2017-05-09T01:52:18.519Z,5.33
2017-05-09T01:53:32.249Z,5.32
2017-05-09T01:54:44.832Z,5.32
2017-05-09T01:55:57.285Z,5.17
2017-05-09T01:57:10.033Z,5.28
2017-05-09T01:58:23.799Z,5.26
2017-05-09T01:59:37.519Z,5.22
2017-05-09T02:00:50.018Z,5.18
2017-05-09T02:02:04.237Z,5.31
2017-05-09T02:03:18.012Z,5.24
2017-05-09T02:04:31.776Z,5.25
2017-05-09T02:05:44.216Z,5.35
2017-05-09T02:06:57.931Z,5.25
2017-05-09T02:08:11.908Z,5.21
2017-05-09T02:09:25.672Z,5.22
2017-05-09T02:10:36.814Z,5.26
2017-05-09T02:11:49.247Z,5.25
2017-05-09T02:13:02.025Z,5.26
2017-05-09T02:14:15.749Z,5.18
2017-05-09T02:15:28.240Z,5.25
2017-05-09T02:16:41.967Z,5.22
2017-05-09T02:17:55.697Z,5.22
2017-05-09T02:19:09.684Z,5.16
2017-05-09T02:20:23.426Z,5.31
2017-05-09T02:21:35.897Z,5.22
2017-05-09T02:22:49.684Z,5.26
2017-05-09T02:24:03.811Z,5.18
2017-05-09T02:25:17.579Z,5.24
2017-05-09T02:26:31.336Z,5.26
2017-05-09T02:27:45.119Z,5.28
2017-05-09T02:28:57.811Z,5.25
2017-05-09T02:30:11.809Z,5.28
2017-05-09T02:31:25.593Z,5.17
2017-05-09T02:32:38.276Z,5.18
2017-05-09T02:33:51.998Z,5.16
2017-05-09T02:35:04.704Z,5.24
2017-05-09T02:36:18.433Z,5.21
2017-05-09T02:37:32.276Z,5.14
2017-05-09T02:38:44.711Z,5.22
2017-05-09T02:39:55.973Z,5.22
2017-05-09T02:41:09.992Z,5.16
2017-05-09T02:42:23.764Z,5.13
2017-05-09T02:43:37.505Z,5.16
2017-05-09T02:44:51.281Z,5.18
2017-05-09T02:46:05.269Z,5.11
2017-05-09T02:47:18.992Z,5.13
2017-05-09T02:48:32.749Z,5.07
2017-05-09T02:49:46.469Z,5
2017-05-09T02:51:00.241Z,5.04
2017-05-09T02:52:14.265Z,5.07
2017-05-09T02:53:28.105Z,5.04
2017-05-09T02:54:41.832Z,5.07
2017-05-09T02:55:55.581Z,5.06
2017-05-09T02:57:09.771Z,5.07
2017-05-09T02:58:23.756Z,5.13
2017-05-09T02:59:37.509Z,5.16
2017-05-09T03:00:51.250Z,5.11
2017-05-09T03:02:03.685Z,5.22
2017-05-09T03:03:16.383Z,5.17
2017-05-09T03:04:30.184Z,5.22
2017-05-09T03:05:41.383Z,5.16
2017-05-09T03:06:53.883Z,5.18
2017-05-09T03:08:07.869Z,5.14
2017-05-09T03:09:19.008Z,5.16
2017-05-09T03:10:31.476Z,5.24
2017-05-09T03:11:43.920Z,5.22
2017-05-09T03:12:57.863Z,5.28
2017-05-09T03:14:11.839Z,5.18
2017-05-09T03:15:25.648Z,5.26
2017-05-09T03:16:39.398Z,5.22
2017-05-09T03:17:51.887Z,5.31
2017-05-09T03:19:04.632Z,5.18
2017-05-09T03:20:18.774Z,5.24
2017-05-09T03:21:32.546Z,5.31
2017-05-09T03:22:46.303Z,5.22
2017-05-09T03:24:00.044Z,5.22
2017-05-09T03:25:14.037Z,5.16
2017-05-09T03:26:27.883Z,5.25
2017-05-09T03:27:40.359Z,5.16
2017-05-09T03:28:54.117Z,5.18
2017-05-09T03:30:08.098Z,5.18
2017-05-09T03:31:21.826Z,5.21
2017-05-09T03:32:35.641Z,5.16
2017-05-09T03:33:48.145Z,5.21
2017-05-09T03:35:01.887Z,5.25
2017-05-09T03:36:14.593Z,5.22
2017-05-09T03:37:27.035Z,5.17
2017-05-09T03:39:11.750Z,5.18
2017-05-09T03:40:25.728Z,5.18
2017-05-09T03:41:39.451Z,5.22
2017-05-09T03:42:53.205Z,5.22
2017-05-09T03:44:05.877Z,5.22
2017-05-09T03:45:19.601Z,5.24
2017-05-09T03:46:31.008Z,5.25
2017-05-09T03:47:44.771Z,5.26
2017-05-09T03:48:57.202Z,5.25
2017-05-09T03:50:10.924Z,5.24
2017-05-09T03:51:24.961Z,5.24
2017-05-09T03:52:38.757Z,5.26
2017-05-09T03:53:52.553Z,5.33
2017-05-09T03:55:04.996Z,5.32
2017-05-09T03:56:18.721Z,5.32
2017-05-09T03:57:32.764Z,5.43
2017-05-09T03:58:45.208Z,5.46
2017-05-09T03:59:58.963Z,5.53
2017-05-09T04:01:12.704Z,5.47
2017-05-09T04:02:26.745Z,5.47
2017-05-09T04:03:40.467Z,5.44
2017-05-09T04:04:54.203Z,5.51
2017-05-09T04:06:07.926Z,5.58
2017-05-09T04:07:20.361Z,5.54
2017-05-09T04:09:05.242Z,5.67
2017-05-09T04:10:17.676Z,5.68
2017-05-09T04:11:31.641Z,5.67
2017-05-09T04:12:45.665Z,5.74
2017-05-09T04:13:59.436Z,5.69
2017-05-09T04:15:13.199Z,5.68
2017-05-09T04:16:25.639Z,5.72
2017-05-09T04:17:38.089Z,5.67
2017-05-09T04:18:50.790Z,5.67
2017-05-09T04:20:03.223Z,5.67
2017-05-09T04:21:17.202Z,5.54
2017-05-09T04:22:29.642Z,5.61
2017-05-09T04:23:42.586Z,5.54
2017-05-09T04:24:52.472Z,5.54
2017-05-09T04:26:06.327Z,5.53
2017-05-09T04:27:20.065Z,5.51
2017-05-09T04:28:32.548Z,5.51
2017-05-09T04:29:46.524Z,5.51
2017-05-09T04:31:00.332Z,5.49
2017-05-09T04:32:11.487Z,5.46
2017-05-09T04:33:24.026Z,5.5
2017-05-09T04:34:37.994Z,5.41
2017-05-09T04:35:51.761Z,5.38
2017-05-09T04:37:05.496Z,5.29
2017-05-09T04:38:19.239Z,5.44
2017-05-09T04:39:33.174Z,5.41
2017-05-09T04:40:47.156Z,5.4
2017-05-09T04:41:59.600Z,5.38
2017-05-09T04:43:13.355Z,5.4
2017-05-09T04:44:27.103Z,5.36
2017-05-09T04:45:41.092Z,5.43
2017-05-09T04:46:53.525Z,5.32
2017-05-09T04:48:07.496Z,5.31
2017-05-09T04:49:21.262Z,5.43
2017-05-09T04:50:33.748Z,5.43
2017-05-09T04:51:47.764Z,5.46
2017-05-09T04:53:01.491Z,5.4
2017-05-09T04:54:15.213Z,5.43
2017-05-09T04:55:28.943Z,5.29
2017-05-09T04:56:41.636Z,5.4
2017-05-09T04:57:55.359Z,5.47
2017-05-09T04:59:09.091Z,5.54
2017-05-09T05:00:22.818Z,5.51
2017-05-09T05:01:35.283Z,5.54
2017-05-09T05:02:48.121Z,5.51
2017-05-09T05:04:01.855Z,5.54
2017-05-09T05:05:15.585Z,5.59
2017-05-09T05:06:29.319Z,5.58
2017-05-09T05:07:43.349Z,5.54
2017-05-09T05:08:55.787Z,5.54
2017-05-09T05:10:09.525Z,5.65
2017-05-09T05:11:23.287Z,5.68
2017-05-09T05:12:35.747Z,5.58
2017-05-09T05:13:49.915Z,5.59
2017-05-09T05:15:02.447Z,5.5
2017-05-09T05:16:16.183Z,5.53
2017-05-09T05:17:28.913Z,5.53
2017-05-09T05:18:41.712Z,5.58
2017-05-09T05:19:52.873Z,5.47
2017-05-09T05:21:06.681Z,5.43
2017-05-09T05:22:19.170Z,5.5
2017-05-09T05:23:32.974Z,5.56
2017-05-09T05:24:46.962Z,5.53
2017-05-09T05:25:59.615Z,5.54
2017-05-09T05:27:13.461Z,5.54
2017-05-09T05:28:25.957Z,5.68
2017-05-09T05:29:39.960Z,5.65
2017-05-09T05:30:53.860Z,5.65
2017-05-09T05:32:06.315Z,5.71
2017-05-09T05:33:18.752Z,5.69
2017-05-09T05:34:32.512Z,5.68
2017-05-09T05:35:46.502Z,5.79
2017-05-09T05:36:58.984Z,5.72
2017-05-09T05:38:12.708Z,5.83
2017-05-09T05:39:26.435Z,5.83
2017-05-09T05:40:40.426Z,5.88
2017-05-09T05:41:54.385Z,5.82
2017-05-09T05:43:08.347Z,5.75
2017-05-09T05:44:20.847Z,5.84
2017-05-09T05:45:34.604Z,5.86
2017-05-09T05:46:48.596Z,6.01
2017-05-09T05:48:02.571Z,6.05
2017-05-09T05:49:16.358Z,6.08
2017-05-09T05:50:30.119Z,6.06
2017-05-09T05:51:42.936Z,6.14
2017-05-09T05:52:56.681Z,6.17
2017-05-09T05:54:09.251Z,6.23
2017-05-09T05:55:21.674Z,6.21
2017-05-09T05:56:35.692Z,6.41
2017-05-09T05:57:48.443Z,6.31
2017-05-09T05:59:02.205Z,6.44
2017-05-09T06:00:14.720Z,6.41
2017-05-09T06:01:28.448Z,6.46
2017-05-09T06:02:42.604Z,6.44
2017-05-09T06:03:55.077Z,6.45
2017-05-09T06:05:08.797Z,6.56
2017-05-09T06:06:21.232Z,6.53
2017-05-09T06:07:34.982Z,6.45
2017-05-09T06:08:49.007Z,6.57
2017-05-09T06:10:02.764Z,6.53
2017-05-09T06:11:15.438Z,6.48
2017-05-09T06:12:29.288Z,6.39
2017-05-09T06:13:42.260Z,6.39
2017-05-09T06:14:54.697Z,6.41
2017-05-09T06:16:08.451Z,6.45
2017-05-09T06:17:22.195Z,6.49
2017-05-09T06:18:36.021Z,6.54
2017-05-09T06:19:48.724Z,6.56
2017-05-09T06:21:02.478Z,6.59
2017-05-09T06:22:16.206Z,6.64
2017-05-09T06:23:30.024Z,6.75
2017-05-09T06:24:44.130Z,6.81
2017-05-09T06:25:57.852Z,6.79
2017-05-09T06:27:11.576Z,6.84
2017-05-09T06:28:24.070Z,6.85
2017-05-09T06:29:38.060Z,6.97
2017-05-09T06:30:52.116Z,6.93
2017-05-09T06:32:05.932Z,6.9
2017-05-09T06:33:18.383Z,6.92
2017-05-09T06:34:32.368Z,7.05
2017-05-09T06:35:46.351Z,6.99
2017-05-09T06:37:00.318Z,7
2017-05-09T06:38:14.087Z,7.05
2017-05-09T06:39:26.538Z,7.05
2017-05-09T06:40:40.259Z,7.11
2017-05-09T06:41:51.689Z,7.13
2017-05-09T06:43:04.201Z,7.2
2017-05-09T06:44:16.660Z,7.15
2017-05-09T06:45:29.150Z,7.21
2017-05-09T06:46:43.197Z,7.29
2017-05-09T06:47:56.915Z,7.26
2017-05-09T06:49:09.398Z,7.33
2017-05-09T06:50:21.857Z,7.29
2017-05-09T06:51:35.618Z,7.21
2017-05-09T06:52:49.604Z,7.15
2017-05-09T06:54:00.754Z,7.15
2017-05-09T06:55:14.468Z,7.17
2017-05-09T06:56:25.619Z,7.28
2017-05-09T06:57:39.808Z,7.31
2017-05-09T06:58:52.290Z,7.37
2017-05-09T07:00:04.883Z,7.48
2017-05-09T07:01:18.627Z,7.48
2017-05-09T07:02:31.126Z,7.56
2017-05-09T07:03:45.299Z,7.59
2017-05-09T07:04:59.033Z,7.64
2017-05-09T07:06:11.511Z,7.66
2017-05-09T07:07:22.909Z,7.79
2017-05-09T07:08:35.601Z,7.73
2017-05-09T07:09:49.329Z,7.7
2017-05-09T07:11:01.811Z,7.9
2017-05-09T07:12:15.550Z,7.9
2017-05-09T07:13:30.861Z,7.84
2017-05-09T07:14:46.479Z,7.85
2017-05-09T07:16:00.635Z,7.91
2017-05-09T07:17:13.029Z,7.99
2017-05-09T07:18:28.474Z,8.02
2017-05-09T07:19:44.286Z,8.1
2017-05-09T07:20:59.646Z,8.15
2017-05-09T07:22:14.992Z,8.15
2017-05-09T07:23:30.376Z,8.21
2017-05-09T07:24:46.041Z,8.23
2017-05-09T07:26:00.200Z,8.27
2017-05-09T07:27:15.549Z,8.28
2017-05-09T07:28:30.886Z,8.28
2017-05-09T07:29:45.175Z,8.28
2017-05-09T07:30:59.233Z,8.13
2017-05-09T07:32:13.279Z,8.16
2017-05-09T07:33:28.247Z,8.1
2017-05-09T07:34:43.821Z,7.97
2017-05-09T07:35:59.395Z,8.07
2017-05-09T07:37:12.014Z,8.02
2017-05-09T07:38:26.172Z,8.07
2017-05-09T07:39:40.507Z,7.99
2017-05-09T07:40:55.841Z,8.06
2017-05-09T07:42:11.190Z,7.97
2017-05-09T07:43:26.155Z,8.06
2017-05-09T07:44:41.809Z,8.02
2017-05-09T07:45:54.561Z,8.03
2017-05-09T07:47:08.535Z,7.99
2017-05-09T07:48:23.883Z,8.05
2017-05-09T07:49:37.952Z,8.05
2017-05-09T07:50:53.612Z,7.99
2017-05-09T07:52:07.659Z,7.92
2017-05-09T07:53:21.798Z,7.98
2017-05-09T07:54:37.152Z,8.05
2017-05-09T07:55:51.458Z,8.17
2017-05-09T07:57:06.832Z,8.42
2017-05-09T07:58:22.192Z,8.46
2017-05-09T07:59:37.710Z,8.48
2017-05-09T08:00:52.110Z,8.74
2017-05-09T08:02:06.026Z,8.9
2017-05-09T08:03:21.401Z,8.93
2017-05-09T08:04:35.488Z,9.04
2017-05-09T08:05:49.665Z,9.11
2017-05-09T08:07:05.103Z,9.15
2017-05-09T08:08:19.279Z,9.15
2017-05-09T08:09:34.658Z,9.09
2017-05-09T08:10:50.232Z,9.07
2017-05-09T08:12:05.711Z,9.08
2017-05-09T08:13:21.064Z,9.15
2017-05-09T08:14:35.112Z,9.11
2017-05-09T08:15:50.738Z,9.08
2017-05-09T08:17:06.071Z,9.07
2017-05-09T08:18:21.412Z,8.93
2017-05-09T08:19:36.792Z,8.75
2017-05-09T08:20:51.137Z,8.66
2017-05-09T08:22:05.239Z,8.39
2017-05-09T08:23:20.625Z,8.46
2017-05-09T08:24:35.973Z,8.25
2017-05-09T08:25:51.628Z,8.16
2017-05-09T08:27:06.968Z,8.13
2017-05-09T08:28:22.299Z,8.06
2017-05-09T08:29:37.648Z,7.82
2017-05-09T08:30:53.217Z,7.84
2017-05-09T08:32:08.558Z,7.76
2017-05-09T08:33:22.655Z,7.8
2017-05-09T08:34:36.722Z,7.76
2017-05-09T08:35:50.796Z,7.77
2017-05-09T08:37:06.379Z,7.79
2017-05-09T08:38:21.851Z,7.67
2017-05-09T08:39:35.944Z,7.77
2017-05-09T08:40:50.071Z,7.77
2017-05-09T08:42:04.493Z,7.73
2017-05-09T08:43:17.293Z,7.82
2017-05-09T08:44:32.688Z,7.85
2017-05-09T08:45:47.700Z,7.85
2017-05-09T08:47:03.531Z,7.82
2017-05-09T08:48:17.866Z,7.92
2017-05-09T08:49:33.210Z,7.97
2017-05-09T08:50:48.538Z,7.91
2017-05-09T08:52:04.337Z,7.97
2017-05-09T08:53:19.682Z,7.91
2017-05-09T08:54:35.064Z,8.03
2017-05-09T08:55:50.411Z,8.02
2017-05-09T08:57:03.276Z,7.92
2017-05-09T08:58:18.501Z,7.9
2017-05-09T08:59:32.245Z,7.97
2017-05-09T09:00:46.080Z,7.87
2017-05-09T09:02:00.056Z,7.84
2017-05-09T09:03:13.792Z,7.76
2017-05-09T09:04:27.549Z,7.79
2017-05-09T09:05:41.277Z,7.66
2017-05-09T09:06:55.009Z,7.61
2017-05-09T09:08:07.728Z,7.52
2017-05-09T09:09:18.931Z,7.52
2017-05-09T09:10:32.667Z,7.55
2017-05-09T09:11:46.447Z,7.54
2017-05-09T09:12:59.176Z,7.56
2017-05-09T09:14:12.930Z,7.54
2017-05-09T09:15:26.763Z,7.59
2017-05-09T09:16:40.503Z,7.62
2017-05-09T09:17:54.287Z,7.74
2017-05-09T09:19:06.982Z,7.84
2017-05-09T09:20:20.741Z,7.9
2017-05-09T09:21:33.191Z,7.88
2017-05-09T09:22:46.923Z,8.03
2017-05-09T09:23:59.775Z,8.2
2017-05-09T09:25:13.510Z,8.32
2017-05-09T09:26:26.178Z,8.35
2017-05-09T09:27:39.954Z,8.35
2017-05-09T09:28:52.410Z,8.35
2017-05-09T09:30:06.718Z,8.37
2017-05-09T09:31:20.563Z,8.4
2017-05-09T09:32:33.007Z,8.46
2017-05-09T09:33:46.831Z,8.53
2017-05-09T09:34:59.575Z,8.5
2017-05-09T09:36:13.325Z,8.57
2017-05-09T09:37:25.764Z,8.55
2017-05-09T09:38:39.560Z,8.5
2017-05-09T09:39:53.300Z,8.53
2017-05-09T09:41:06.013Z,8.5
2017-05-09T09:42:19.767Z,8.43
2017-05-09T09:43:33.563Z,8.43
2017-05-09T09:44:46.249Z,8.34
2017-05-09T09:46:00.381Z,8.31
2017-05-09T09:47:11.555Z,8.32
2017-05-09T09:48:25.293Z,8.27
2017-05-09T09:49:37.764Z,8.43
2017-05-09T09:50:51.571Z,8.42
2017-05-09T09:52:05.564Z,8.49
2017-05-09T09:53:19.287Z,8.43
2017-05-09T09:54:33.032Z,8.46
2017-05-09T09:55:45.490Z,8.32
2017-05-09T09:56:59.488Z,8.25
2017-05-09T09:58:13.298Z,8.12
2017-05-09T09:59:27.073Z,8.21
2017-05-09T10:00:40.800Z,8.21
2017-05-09T10:01:54.553Z,8.16
2017-05-09T10:03:08.547Z,8.15
2017-05-09T10:04:22.500Z,8.16
2017-05-09T10:05:36.257Z,8.27
2017-05-09T10:06:49.998Z,8.25
2017-05-09T10:08:02.732Z,8.31
2017-05-09T10:09:16.460Z,8.3
2017-05-09T10:10:30.223Z,8.28
2017-05-09T10:11:42.713Z,8.31
2017-05-09T10:12:56.494Z,8.37
2017-05-09T10:14:10.530Z,8.4
2017-05-09T10:15:22.972Z,8.39
2017-05-09T10:16:36.722Z,8.46
2017-05-09T10:17:50.458Z,8.53
2017-05-09T10:19:04.445Z,8.43
2017-05-09T10:20:18.501Z,8.61
2017-05-09T10:21:32.569Z,8.67
2017-05-09T10:22:47.950Z,8.64
2017-05-09T10:24:03.176Z,8.74
2017-05-09T10:25:17.238Z,8.8
2017-05-09T10:26:32.597Z,8.87
2017-05-09T10:27:46.515Z,8.89
2017-05-09T10:29:00.575Z,9.11
2017-05-09T10:30:16.194Z,9.29
2017-05-09T10:31:31.606Z,9.48
2017-05-09T10:32:45.646Z,9.55
2017-05-09T10:33:59.577Z,9.8
2017-05-09T10:35:13.915Z,9.98
2017-05-09T10:36:28.091Z,10.17
2017-05-09T10:37:43.450Z,10.3
2017-05-09T10:38:58.901Z,10.54
2017-05-09T10:40:14.538Z,10.69
2017-05-09T10:41:28.644Z,10.8
2017-05-09T10:42:43.979Z,10.8
2017-05-09T10:43:59.457Z,10.75
2017-05-09T10:45:15.044Z,10.85
2017-05-09T10:46:30.450Z,10.98
2017-05-09T10:47:45.792Z,11.12
2017-05-09T10:49:01.130Z,11.33
2017-05-09T10:50:16.760Z,11.4
2017-05-09T10:51:32.131Z,11.38
2017-05-09T10:52:47.500Z,11.49
2017-05-09T10:54:03.068Z,11.5
2017-05-09T10:55:17.366Z,11.53
2017-05-09T10:56:32.747Z,11.5
2017-05-09T10:57:48.318Z,11.59
2017-05-09T10:59:02.368Z,11.62
2017-05-09T11:00:16.769Z,11.72
2017-05-09T11:01:32.236Z,11.72
2017-05-09T11:02:46.377Z,11.58
2017-05-09T11:04:01.763Z,11.59
2017-05-09T11:05:14.835Z,11.43
2017-05-09T11:06:30.185Z,11.39
2017-05-09T11:07:44.141Z,11.28
2017-05-09T11:08:56.854Z,11.21
2017-05-09T11:10:10.970Z,11.02
2017-05-09T11:11:26.567Z,10.91
2017-05-09T11:12:41.904Z,10.91
2017-05-09T11:13:55.957Z,10.73
2017-05-09T11:15:11.361Z,10.57
2017-05-09T11:16:25.780Z,10.52
2017-05-09T11:17:41.364Z,10.4
2017-05-09T11:18:56.734Z,10.32
2017-05-09T11:20:10.770Z,10.3
2017-05-09T11:21:26.410Z,10.34
2017-05-09T11:22:41.792Z,10.32
2017-05-09T11:23:57.184Z,10.22
2017-05-09T11:25:12.571Z,10.24
2017-05-09T11:26:25.608Z,10.27
2017-05-09T11:27:39.678Z,10.27
2017-05-09T11:28:53.869Z,10.29
2017-05-09T11:30:08.031Z,10.29
2017-05-09T11:31:23.744Z,10.3
2017-05-09T11:32:39.117Z,10.24
2017-05-09T11:33:54.463Z,10.27
2017-05-09T11:35:09.828Z,10.29
2017-05-09T11:36:25.424Z,10.33
2017-05-09T11:37:41.047Z,10.39
2017-05-09T11:38:56.400Z,10.59
2017-05-09T11:40:11.756Z,10.66
2017-05-09T11:41:25.775Z,10.69
2017-05-09T11:42:41.127Z,10.76
2017-05-09T11:43:55.183Z,10.84
2017-05-09T11:45:09.231Z,10.91
2017-05-09T11:46:24.922Z,11.02
2017-05-09T11:47:40.303Z,11.02
2017-05-09T11:48:55.663Z,11.17
2017-05-09T11:50:09.746Z,11.31
2017-05-09T11:51:25.365Z,11.45
2017-05-09T11:52:40.703Z,11.46
2017-05-09T11:53:54.771Z,11.46
2017-05-09T11:55:09.747Z,11.57
2017-05-09T11:56:24.096Z,11.61
2017-05-09T11:57:36.858Z,11.59
2017-05-09T11:58:52.275Z,11.46
2017-05-09T12:00:06.337Z,11.42
2017-05-09T12:01:21.683Z,11.42
2017-05-09T12:02:37.281Z,11.33
2017-05-09T12:03:52.670Z,11.25
2017-05-09T12:05:08.000Z,11.13
2017-05-09T12:06:22.041Z,11.2
2017-05-09T12:07:36.351Z,11.17
2017-05-09T12:08:51.774Z,11.16
2017-05-09T12:10:05.482Z,11.34
2017-05-09T12:11:19.398Z,11.3
2017-05-09T12:12:32.626Z,11.33
2017-05-09T12:13:45.320Z,11.38
2017-05-09T12:14:59.256Z,11.49
2017-05-09T12:16:14.243Z,11.58
2017-05-09T12:17:28.593Z,11.66
2017-05-09T12:18:42.690Z,11.64
2017-05-09T12:19:58.132Z,11.61
2017-05-09T12:21:13.474Z,11.57
2017-05-09T12:22:29.206Z,11.48
2017-05-09T12:23:44.781Z,11.48
2017-05-09T12:25:00.121Z,11.28
2017-05-09T12:26:15.482Z,11.12
2017-05-09T12:27:29.518Z,11.06
2017-05-09T12:28:43.623Z,10.91
2017-05-09T12:29:58.970Z,10.9
2017-05-09T12:31:14.332Z,10.8
2017-05-09T12:32:29.992Z,10.72
2017-05-09T12:33:45.353Z,10.55
2017-05-09T12:34:59.407Z,10.5
2017-05-09T12:36:15.419Z,10.4
2017-05-09T12:37:29.334Z,10.34
2017-05-09T12:38:45.369Z,10.36
2017-05-09T12:40:00.746Z,10.32
2017-05-09T12:41:13.670Z,10.33
2017-05-09T12:42:29.084Z,10.32
2017-05-09T12:43:44.747Z,10.21
2017-05-09T12:45:00.140Z,10.24
2017-05-09T12:46:15.476Z,10.32
2017-05-09T12:47:29.535Z,10.32
2017-05-09T12:48:43.829Z,10.29
2017-05-09T12:49:59.163Z,10.42
2017-05-09T12:51:14.739Z,10.45
2017-05-09T12:52:30.298Z,10.45
2017-05-09T12:53:45.945Z,10.54
2017-05-09T12:55:00.052Z,10.61
2017-05-09T12:56:15.674Z,10.75
2017-05-09T12:57:31.022Z,10.7
2017-05-09T12:58:46.676Z,10.7
2017-05-09T13:00:02.295Z,10.77
2017-05-09T13:01:17.629Z,10.84
2017-05-09T13:02:31.694Z,10.83
2017-05-09T13:03:47.380Z,10.95
2017-05-09T13:05:01.476Z,11.1
2017-05-09T13:06:16.881Z,11.1
2017-05-09T13:07:32.220Z,11.27
2017-05-09T13:08:45.312Z,11.39
2017-05-09T13:10:00.650Z,11.38
2017-05-09T13:11:16.223Z,11.46
2017-05-09T13:12:31.255Z,11.58
2017-05-09T13:13:46.929Z,11.64
2017-05-09T13:15:02.276Z,11.59
2017-05-09T13:16:16.372Z,11.59
2017-05-09T13:17:31.748Z,11.65
2017-05-09T13:18:47.386Z,11.61
2017-05-09T13:20:02.471Z,11.5
2017-05-09T13:21:17.805Z,11.35
2017-05-09T13:22:31.888Z,11.4
2017-05-09T13:23:47.526Z,11.33
2017-05-09T13:25:02.890Z,11.35
2017-05-09T13:26:18.712Z,11.39
2017-05-09T13:27:34.070Z,11.34
2017-05-09T13:28:48.554Z,11.42
2017-05-09T13:30:01.629Z,11.59
2017-05-09T13:31:17.066Z,11.64
2017-05-09T13:32:32.415Z,11.72
2017-05-09T13:33:48.058Z,11.74
2017-05-09T13:35:03.036Z,11.59
2017-05-09T13:36:18.393Z,11.48
2017-05-09T13:37:33.799Z,11.33
2017-05-09T13:38:46.532Z,11.45
2017-05-09T13:40:01.911Z,11.39
2017-05-09T13:41:17.382Z,11.31
2017-05-09T13:42:32.744Z,11.25
2017-05-09T13:43:48.393Z,11.21
2017-05-09T13:45:02.949Z,11.1
2017-05-09T13:46:15.758Z,10.98
2017-05-09T13:47:29.683Z,10.9
2017-05-09T13:48:45.030Z,10.9
2017-05-09T13:49:59.423Z,10.87
2017-05-09T13:51:14.998Z,10.87
2017-05-09T13:52:29.062Z,10.83
2017-05-09T13:53:44.420Z,10.8
2017-05-09T13:54:58.807Z,10.75
2017-05-09T13:56:12.945Z,10.65
2017-05-09T13:57:28.300Z,10.67
2017-05-09T13:58:43.647Z,10.55
2017-05-09T13:59:59.285Z,10.58
2017-05-09T14:01:13.203Z,10.47
2017-05-09T14:02:25.851Z,10.5
2017-05-09T14:03:39.912Z,10.34
2017-05-09T14:04:55.562Z,10.37
2017-05-09T14:06:11.132Z,10.27
2017-05-09T14:07:26.499Z,10.27
2017-05-09T14:08:42.145Z,10.27
2017-05-09T14:09:58.041Z,10.27
2017-05-09T14:11:13.445Z,10.29
2017-05-09T14:12:27.405Z,10.32
2017-05-09T14:13:41.483Z,10.27
2017-05-09T14:14:57.191Z,10.39
2017-05-09T14:16:12.542Z,10.34
2017-05-09T14:17:27.905Z,10.32
2017-05-09T14:18:43.262Z,10.37
2017-05-09T14:19:59.151Z,10.5
2017-05-09T14:21:14.497Z,10.55
2017-05-09T14:22:29.946Z,10.7
2017-05-09T14:23:44.072Z,10.69
2017-05-09T14:24:59.737Z,10.72
2017-05-09T14:26:12.443Z,10.8
2017-05-09T14:27:28.057Z,10.83
2017-05-09T14:28:43.410Z,10.8
2017-05-09T14:29:59.448Z,10.84
2017-05-09T14:31:13.529Z,10.9
2017-05-09T14:32:27.466Z,10.87
2017-05-09T14:34:13.775Z,11.02
2017-05-09T14:35:29.669Z,10.98
2017-05-09T14:36:45.065Z,11.12
2017-05-09T14:38:00.479Z,11.03
2017-05-09T14:39:15.826Z,11.08
2017-05-09T14:40:31.471Z,10.85
2017-05-09T14:41:46.815Z,10.84
2017-05-09T14:43:00.884Z,10.85
2017-05-09T14:44:16.288Z,10.92
2017-05-09T14:45:29.231Z,10.9
2017-05-09T14:46:44.626Z,10.92
2017-05-09T14:48:00.014Z,10.91
2017-05-09T14:49:13.935Z,10.94
2017-05-09T14:50:28.312Z,10.9
2017-05-09T14:51:42.389Z,10.88
2017-05-09T14:52:56.318Z,10.8
2017-05-09T14:54:10.388Z,10.83
2017-05-09T14:55:25.810Z,10.8
2017-05-09T14:56:40.281Z,10.87
2017-05-09T14:57:55.758Z,10.83
2017-05-09T14:59:11.182Z,10.87
2017-05-09T15:00:25.314Z,10.84
2017-05-09T15:01:41.003Z,10.75
2017-05-09T15:02:56.480Z,10.76
2017-05-09T15:04:10.719Z,10.72
2017-05-09T15:05:26.065Z,10.8
2017-05-09T15:06:41.709Z,10.87
2017-05-09T15:07:56.680Z,10.79
2017-05-09T15:09:12.097Z,10.88
2017-05-09T15:10:26.268Z,10.83
2017-05-09T15:12:12.780Z,10.77
2017-05-09T15:13:28.153Z,10.69
2017-05-09T15:14:43.535Z,10.69
2017-05-09T15:15:57.653Z,10.73
2017-05-09T15:17:12.015Z,10.66
2017-05-09T15:18:27.747Z,10.67
2017-05-09T15:19:43.106Z,10.61
2017-05-09T15:20:58.485Z,10.61
2017-05-09T15:22:14.526Z,10.58
2017-05-09T15:23:29.890Z,10.5
2017-05-09T15:24:45.295Z,10.51
2017-05-09T15:26:00.633Z,10.48
2017-05-09T15:27:16.671Z,10.43
2017-05-09T15:28:32.264Z,10.37
2017-05-09T15:29:46.364Z,10.43
2017-05-09T15:31:01.767Z,10.43
2017-05-09T15:32:17.431Z,10.4
2017-05-09T15:33:32.794Z,10.43
2017-05-09T15:34:48.187Z,10.36
2017-05-09T15:36:03.581Z,10.45
2017-05-09T15:37:17.914Z,10.5
2017-05-09T15:38:33.513Z,10.47
2017-05-09T15:39:48.869Z,10.37
2017-05-09T15:41:04.220Z,10.33
2017-05-09T15:42:19.822Z,10.32
2017-05-09T15:43:35.167Z,10.32
2017-05-09T15:44:50.562Z,10.36
2017-05-09T15:46:04.677Z,10.34
2017-05-09T15:47:20.317Z,10.39
2017-05-09T15:48:35.749Z,10.33
2017-05-09T15:49:48.470Z,10.34
2017-05-09T15:51:02.779Z,10.33
2017-05-09T15:52:18.614Z,10.4
2017-05-09T15:53:34.034Z,10.39
2017-05-09T15:54:49.445Z,10.47
2017-05-09T15:56:04.454Z,10.36
2017-05-09T15:57:17.453Z,10.52
2017-05-09T15:58:31.867Z,10.58
2017-05-09T15:59:45.947Z,10.47
2017-05-09T16:00:58.605Z,10.5
2017-05-09T16:02:14.323Z,10.42
2017-05-09T16:03:29.671Z,10.42
2017-05-09T16:04:43.762Z,10.36
2017-05-09T16:05:59.137Z,10.27
2017-05-09T16:07:14.807Z,10.27
2017-05-09T16:08:28.923Z,10.3
2017-05-09T16:09:43.925Z,10.27
2017-05-09T16:10:58.027Z,10.34
2017-05-09T16:12:13.370Z,10.27
2017-05-09T16:13:28.969Z,10.34
2017-05-09T16:14:43.023Z,10.24
2017-05-09T16:15:57.099Z,10.37
2017-05-09T16:17:12.469Z,10.36
2017-05-09T16:18:26.907Z,10.37
2017-05-09T16:19:40.846Z,10.52
2017-05-09T16:20:55.141Z,10.47
2017-05-09T16:22:10.548Z,10.42
2017-05-09T16:23:26.178Z,10.4
2017-05-09T16:24:41.690Z,10.45
2017-05-09T16:25:55.633Z,10.5
2017-05-09T16:27:11.000Z,10.48
2017-05-09T16:28:25.202Z,10.45
2017-05-09T16:29:40.586Z,10.43